sensor_id;sensor_type;location;lat;lon;timestamp;pressure;altitude;pressure_sealevel;temperature;humidity
77450;BME280;66536;53.150;18.172;2023-07-29T00:01:47;100570.33;;;14.90;83.52
77450;BME280;66536;53.150;18.172;2023-07-29T00:04:15;100574.77;;;14.87;83.68
77450;BME280;66536;53.150;18.172;2023-07-29T00:06:42;100574.98;;;14.84;83.92
77450;BME280;66536;53.150;18.172;2023-07-29T00:09:09;100573.84;;;14.82;84.47
77450;BME280;66536;53.150;18.172;2023-07-29T00:11:37;100575.17;;;14.80;84.34
77450;BME280;66536;53.150;18.172;2023-07-29T00:14:08;100575.86;;;14.78;84.49
77450;BME280;66536;53.150;18.172;2023-07-29T00:16:34;100577.33;;;14.75;84.68
77450;BME280;66536;53.150;18.172;2023-07-29T00:19:02;100577.80;;;14.72;84.71
77450;BME280;66536;53.150;18.172;2023-07-29T00:21:34;100578.98;;;14.69;84.85
77450;BME280;66536;53.150;18.172;2023-07-29T00:24:02;100578.90;;;14.66;84.77
77450;BME280;66536;53.150;18.172;2023-07-29T00:26:28;100581.86;;;14.63;84.94
77450;BME280;66536;53.150;18.172;2023-07-29T00:28:56;100581.57;;;14.60;84.92
77450;BME280;66536;53.150;18.172;2023-07-29T00:31:24;100579.67;;;14.57;84.97
77450;BME280;66536;53.150;18.172;2023-07-29T00:33:51;100578.46;;;14.53;85.21
77450;BME280;66536;53.150;18.172;2023-07-29T00:36:20;100580.48;;;14.49;85.16
77450;BME280;66536;53.150;18.172;2023-07-29T00:38:47;100580.45;;;14.45;85.15
77450;BME280;66536;53.150;18.172;2023-07-29T00:41:15;100585.13;;;14.42;85.46
77450;BME280;66536;53.150;18.172;2023-07-29T00:43:42;100591.73;;;14.38;85.54
77450;BME280;66536;53.150;18.172;2023-07-29T00:46:09;100591.81;;;14.34;85.77
77450;BME280;66536;53.150;18.172;2023-07-29T00:48:37;100590.29;;;14.31;85.47
77450;BME280;66536;53.150;18.172;2023-07-29T00:51:05;100587.96;;;14.27;85.61
77450;BME280;66536;53.150;18.172;2023-07-29T00:53:34;100591.38;;;14.24;85.62
77450;BME280;66536;53.150;18.172;2023-07-29T00:56:03;100593.08;;;14.21;85.65
77450;BME280;66536;53.150;18.172;2023-07-29T00:58:31;100590.64;;;14.17;85.81
77450;BME280;66536;53.150;18.172;2023-07-29T01:00:57;100590.06;;;14.15;85.91
77450;BME280;66536;53.150;18.172;2023-07-29T01:03:25;100586.90;;;14.13;86.02
77450;BME280;66536;53.150;18.172;2023-07-29T01:06:08;100585.14;;;14.11;85.75
77450;BME280;66536;53.150;18.172;2023-07-29T01:08:50;100583.09;;;14.07;86.05
77450;BME280;66536;53.150;18.172;2023-07-29T01:11:38;100589.13;;;14.04;86.06
77450;BME280;66536;53.150;18.172;2023-07-29T01:14:20;100585.46;;;14.01;86.18
77450;BME280;66536;53.150;18.172;2023-07-29T01:16:53;100583.98;;;13.97;86.28
77450;BME280;66536;53.150;18.172;2023-07-29T01:22:11;100581.84;;;13.89;86.30
77450;BME280;66536;53.150;18.172;2023-07-29T01:24:39;100578.90;;;13.85;86.36
77450;BME280;66536;53.150;18.172;2023-07-29T01:27:08;100578.68;;;13.82;86.49
77450;BME280;66536;53.150;18.172;2023-07-29T01:29:38;100576.46;;;13.78;86.53
77450;BME280;66536;53.150;18.172;2023-07-29T01:32:11;100576.52;;;13.73;86.31
77450;BME280;66536;53.150;18.172;2023-07-29T01:34:48;100577.56;;;13.69;86.40
77450;BME280;66536;53.150;18.172;2023-07-29T01:37:22;100576.09;;;13.65;86.58
77450;BME280;66536;53.150;18.172;2023-07-29T01:39:53;100574.59;;;13.61;86.55
77450;BME280;66536;53.150;18.172;2023-07-29T01:42:23;100570.13;;;13.56;86.65
77450;BME280;66536;53.150;18.172;2023-07-29T01:44:51;100570.13;;;13.51;86.63
77450;BME280;66536;53.150;18.172;2023-07-29T01:47:18;100571.40;;;13.48;86.69
77450;BME280;66536;53.150;18.172;2023-07-29T01:49:45;100571.34;;;13.45;86.82
77450;BME280;66536;53.150;18.172;2023-07-29T01:52:11;100575.11;;;13.41;86.88
77450;BME280;66536;53.150;18.172;2023-07-29T01:54:38;100576.87;;;13.39;87.01
77450;BME280;66536;53.150;18.172;2023-07-29T01:57:05;100582.17;;;13.36;87.09
77450;BME280;66536;53.150;18.172;2023-07-29T01:59:32;100581.01;;;13.33;86.92
77450;BME280;66536;53.150;18.172;2023-07-29T02:01:58;100582.07;;;13.29;86.88
77450;BME280;66536;53.150;18.172;2023-07-29T02:04:25;100581.36;;;13.26;86.96
77450;BME280;66536;53.150;18.172;2023-07-29T02:06:52;100587.79;;;13.23;86.97
77450;BME280;66536;53.150;18.172;2023-07-29T02:09:20;100590.68;;;13.20;87.05
77450;BME280;66536;53.150;18.172;2023-07-29T02:11:46;100590.10;;;13.17;86.99
77450;BME280;66536;53.150;18.172;2023-07-29T02:14:13;100598.06;;;13.13;87.02
77450;BME280;66536;53.150;18.172;2023-07-29T02:16:40;100596.38;;;13.10;87.16
77450;BME280;66536;53.150;18.172;2023-07-29T02:19:08;100594.44;;;13.07;87.33
77450;BME280;66536;53.150;18.172;2023-07-29T02:21:34;100598.43;;;13.04;87.36
77450;BME280;66536;53.150;18.172;2023-07-29T02:24:01;100598.54;;;13.01;87.41
77450;BME280;66536;53.150;18.172;2023-07-29T02:26:29;100596.38;;;12.98;87.31
77450;BME280;66536;53.150;18.172;2023-07-29T02:28:56;100596.48;;;12.95;87.39
77450;BME280;66536;53.150;18.172;2023-07-29T02:31:25;100597.23;;;12.92;87.23
77450;BME280;66536;53.150;18.172;2023-07-29T02:33:52;100593.56;;;12.89;87.30
77450;BME280;66536;53.150;18.172;2023-07-29T02:36:18;100594.91;;;12.87;87.57
77450;BME280;66536;53.150;18.172;2023-07-29T02:38:45;100594.75;;;12.84;87.49
77450;BME280;66536;53.150;18.172;2023-07-29T02:41:12;100596.05;;;12.83;87.55
77450;BME280;66536;53.150;18.172;2023-07-29T02:43:42;100594.34;;;12.80;87.62
77450;BME280;66536;53.150;18.172;2023-07-29T02:46:09;100594.80;;;12.78;87.75
77450;BME280;66536;53.150;18.172;2023-07-29T02:48:36;100595.95;;;12.76;87.67
77450;BME280;66536;53.150;18.172;2023-07-29T02:51:03;100600.37;;;12.75;87.49
77450;BME280;66536;53.150;18.172;2023-07-29T02:53:29;100598.24;;;12.73;87.46
77450;BME280;66536;53.150;18.172;2023-07-29T02:55:56;100598.94;;;12.71;87.55
77450;BME280;66536;53.150;18.172;2023-07-29T02:58:23;100603.56;;;12.71;87.66
77450;BME280;66536;53.150;18.172;2023-07-29T03:00:49;100608.36;;;12.70;87.79
77450;BME280;66536;53.150;18.172;2023-07-29T03:03:17;100610.11;;;12.69;87.91
77450;BME280;66536;53.150;18.172;2023-07-29T03:05:47;100609.46;;;12.71;87.98
77450;BME280;66536;53.150;18.172;2023-07-29T03:08:13;100616.46;;;12.72;88.10
77450;BME280;66536;53.150;18.172;2023-07-29T03:10:43;100623.02;;;12.75;88.15
77450;BME280;66536;53.150;18.172;2023-07-29T03:13:10;100629.23;;;12.76;88.18
77450;BME280;66536;53.150;18.172;2023-07-29T03:15:37;100627.28;;;12.79;88.29
77450;BME280;66536;53.150;18.172;2023-07-29T03:18:05;100629.37;;;12.81;88.17
77450;BME280;66536;53.150;18.172;2023-07-29T03:20:31;100627.23;;;12.83;88.00
77450;BME280;66536;53.150;18.172;2023-07-29T03:22:59;100626.68;;;12.84;88.02
77450;BME280;66536;53.150;18.172;2023-07-29T03:25:26;100625.80;;;12.87;87.92
77450;BME280;66536;53.150;18.172;2023-07-29T03:27:52;100628.95;;;12.90;88.00
77450;BME280;66536;53.150;18.172;2023-07-29T03:30:20;100626.38;;;12.94;87.94
77450;BME280;66536;53.150;18.172;2023-07-29T03:32:48;100625.40;;;12.99;87.80
77450;BME280;66536;53.150;18.172;2023-07-29T03:35:15;100627.64;;;13.05;87.90
77450;BME280;66536;53.150;18.172;2023-07-29T03:37:43;100627.45;;;13.09;87.70
77450;BME280;66536;53.150;18.172;2023-07-29T03:40:10;100632.25;;;13.15;87.66
77450;BME280;66536;53.150;18.172;2023-07-29T03:42:37;100631.42;;;13.19;87.54
77450;BME280;66536;53.150;18.172;2023-07-29T03:45:04;100629.05;;;13.25;87.48
77450;BME280;66536;53.150;18.172;2023-07-29T03:47:31;100627.10;;;13.30;87.47
77450;BME280;66536;53.150;18.172;2023-07-29T03:49:58;100630.42;;;13.37;87.42
77450;BME280;66536;53.150;18.172;2023-07-29T03:52:25;100626.77;;;13.42;87.37
77450;BME280;66536;53.150;18.172;2023-07-29T03:54:51;100625.51;;;13.49;87.23
77450;BME280;66536;53.150;18.172;2023-07-29T03:57:18;100627.99;;;13.55;87.07
77450;BME280;66536;53.150;18.172;2023-07-29T03:59:44;100632.17;;;13.63;86.86
77450;BME280;66536;53.150;18.172;2023-07-29T04:02:11;100633.21;;;13.70;86.96
77450;BME280;66536;53.150;18.172;2023-07-29T04:04:39;100632.30;;;13.78;86.84
77450;BME280;66536;53.150;18.172;2023-07-29T04:07:08;100636.88;;;13.88;86.81
77450;BME280;66536;53.150;18.172;2023-07-29T04:09:38;100640.80;;;13.98;86.72
77450;BME280;66536;53.150;18.172;2023-07-29T04:12:07;100636.86;;;14.10;86.66
77450;BME280;66536;53.150;18.172;2023-07-29T04:14:56;100639.89;;;14.23;86.42
77450;BME280;66536;53.150;18.172;2023-07-29T04:17:22;100639.34;;;14.36;86.23
77450;BME280;66536;53.150;18.172;2023-07-29T04:19:50;100642.63;;;14.47;85.91
77450;BME280;66536;53.150;18.172;2023-07-29T04:22:17;100644.19;;;14.58;85.75
77450;BME280;66536;53.150;18.172;2023-07-29T04:24:46;100645.86;;;14.70;85.51
77450;BME280;66536;53.150;18.172;2023-07-29T04:27:14;100652.16;;;14.81;85.24
77450;BME280;66536;53.150;18.172;2023-07-29T04:29:41;100651.57;;;14.91;85.16
77450;BME280;66536;53.150;18.172;2023-07-29T04:32:07;100653.89;;;15.00;85.04
77450;BME280;66536;53.150;18.172;2023-07-29T04:34:34;100658.06;;;15.09;84.80
77450;BME280;66536;53.150;18.172;2023-07-29T04:37:01;100657.71;;;15.17;84.98
77450;BME280;66536;53.150;18.172;2023-07-29T04:39:29;100660.95;;;15.23;84.80
77450;BME280;66536;53.150;18.172;2023-07-29T04:41:56;100659.40;;;15.27;84.82
77450;BME280;66536;53.150;18.172;2023-07-29T04:44:23;100663.84;;;15.31;84.72
77450;BME280;66536;53.150;18.172;2023-07-29T04:46:50;100666.29;;;15.34;84.56
77450;BME280;66536;53.150;18.172;2023-07-29T04:49:18;100666.31;;;15.36;84.73
77450;BME280;66536;53.150;18.172;2023-07-29T04:51:48;100671.22;;;15.39;84.64
77450;BME280;66536;53.150;18.172;2023-07-29T04:54:15;100668.08;;;15.43;84.59
77450;BME280;66536;53.150;18.172;2023-07-29T04:56:42;100670.29;;;15.48;84.67
77450;BME280;66536;53.150;18.172;2023-07-29T04:59:09;100671.14;;;15.52;84.34
77450;BME280;66536;53.150;18.172;2023-07-29T05:01:35;100673.20;;;15.58;84.25
77450;BME280;66536;53.150;18.172;2023-07-29T05:04:02;100671.66;;;15.62;84.31
77450;BME280;66536;53.150;18.172;2023-07-29T05:06:30;100673.11;;;15.66;84.21
77450;BME280;66536;53.150;18.172;2023-07-29T05:08:57;100673.05;;;15.72;84.05
77450;BME280;66536;53.150;18.172;2023-07-29T05:11:24;100672.44;;;15.77;84.10
77450;BME280;66536;53.150;18.172;2023-07-29T05:13:52;100674.08;;;15.82;83.89
77450;BME280;66536;53.150;18.172;2023-07-29T05:16:18;100673.55;;;15.86;83.89
77450;BME280;66536;53.150;18.172;2023-07-29T05:18:45;100673.86;;;15.90;84.06
77450;BME280;66536;53.150;18.172;2023-07-29T05:21:14;100671.75;;;15.95;83.80
77450;BME280;66536;53.150;18.172;2023-07-29T05:23:41;100667.33;;;16.01;83.67
77450;BME280;66536;53.150;18.172;2023-07-29T05:26:08;100667.48;;;16.08;83.60
77450;BME280;66536;53.150;18.172;2023-07-29T05:28:35;100666.83;;;16.15;83.62
77450;BME280;66536;53.150;18.172;2023-07-29T05:31:03;100666.24;;;16.22;83.47
77450;BME280;66536;53.150;18.172;2023-07-29T05:33:30;100671.76;;;16.29;83.44
77450;BME280;66536;53.150;18.172;2023-07-29T05:36:01;100672.20;;;16.36;83.24
77450;BME280;66536;53.150;18.172;2023-07-29T05:38:48;100673.24;;;16.45;83.27
77450;BME280;66536;53.150;18.172;2023-07-29T05:41:14;100674.19;;;16.52;83.10
77450;BME280;66536;53.150;18.172;2023-07-29T05:43:41;100668.10;;;16.59;83.12
77450;BME280;66536;53.150;18.172;2023-07-29T05:46:09;100667.92;;;16.67;82.93
77450;BME280;66536;53.150;18.172;2023-07-29T05:48:36;100668.90;;;16.75;82.79
77450;BME280;66536;53.150;18.172;2023-07-29T05:51:03;100671.29;;;16.84;82.34
77450;BME280;66536;53.150;18.172;2023-07-29T05:53:33;100671.38;;;16.93;82.25
77450;BME280;66536;53.150;18.172;2023-07-29T05:56:03;100670.04;;;17.01;82.07
77450;BME280;66536;53.150;18.172;2023-07-29T05:58:30;100670.73;;;17.10;81.83
77450;BME280;66536;53.150;18.172;2023-07-29T06:00:58;100671.86;;;17.19;81.58
77450;BME280;66536;53.150;18.172;2023-07-29T06:03:27;100672.73;;;17.28;81.27
77450;BME280;66536;53.150;18.172;2023-07-29T06:05:54;100673.61;;;17.35;81.09
77450;BME280;66536;53.150;18.172;2023-07-29T06:08:23;100682.02;;;17.41;80.99
77450;BME280;66536;53.150;18.172;2023-07-29T06:10:51;100680.97;;;17.50;81.06
77450;BME280;66536;53.150;18.172;2023-07-29T06:13:17;100676.95;;;17.59;80.78
77450;BME280;66536;53.150;18.172;2023-07-29T06:15:44;100678.60;;;17.71;80.66
77450;BME280;66536;53.150;18.172;2023-07-29T06:18:12;100680.61;;;17.83;80.35
77450;BME280;66536;53.150;18.172;2023-07-29T06:20:38;100683.98;;;17.95;80.15
77450;BME280;66536;53.150;18.172;2023-07-29T06:23:07;100682.80;;;18.08;79.84
77450;BME280;66536;53.150;18.172;2023-07-29T06:25:34;100684.05;;;18.23;79.49
77450;BME280;66536;53.150;18.172;2023-07-29T06:28:00;100680.42;;;18.34;79.10
77450;BME280;66536;53.150;18.172;2023-07-29T06:30:27;100679.50;;;18.45;78.92
77450;BME280;66536;53.150;18.172;2023-07-29T06:32:55;100681.37;;;18.55;78.50
77450;BME280;66536;53.150;18.172;2023-07-29T06:35:21;100678.99;;;18.68;78.46
77450;BME280;66536;53.150;18.172;2023-07-29T06:37:48;100677.08;;;18.79;77.90
77450;BME280;66536;53.150;18.172;2023-07-29T06:40:15;100675.77;;;18.87;77.58
77450;BME280;66536;53.150;18.172;2023-07-29T06:42:41;100677.25;;;18.96;77.32
77450;BME280;66536;53.150;18.172;2023-07-29T06:45:08;100676.05;;;19.09;77.13
77450;BME280;66536;53.150;18.172;2023-07-29T06:47:36;100675.84;;;19.23;76.80
77450;BME280;66536;53.150;18.172;2023-07-29T06:50:03;100678.91;;;19.34;76.60
77450;BME280;66536;53.150;18.172;2023-07-29T06:52:30;100680.27;;;19.46;76.21
77450;BME280;66536;53.150;18.172;2023-07-29T06:54:59;100682.98;;;19.58;75.97
77450;BME280;66536;53.150;18.172;2023-07-29T06:57:26;100682.81;;;19.73;75.69
77450;BME280;66536;53.150;18.172;2023-07-29T06:59:53;100682.20;;;19.86;75.27
77450;BME280;66536;53.150;18.172;2023-07-29T07:02:19;100673.17;;;19.99;75.08
77450;BME280;66536;53.150;18.172;2023-07-29T07:04:48;100672.96;;;20.13;74.69
77450;BME280;66536;53.150;18.172;2023-07-29T07:07:15;100667.75;;;20.24;73.75
77450;BME280;66536;53.150;18.172;2023-07-29T07:09:42;100668.02;;;20.33;73.06
77450;BME280;66536;53.150;18.172;2023-07-29T07:12:09;100664.92;;;20.41;73.07
77450;BME280;66536;53.150;18.172;2023-07-29T07:14:36;100664.86;;;20.53;72.66
77450;BME280;66536;53.150;18.172;2023-07-29T07:17:03;100663.73;;;20.67;72.40
77450;BME280;66536;53.150;18.172;2023-07-29T07:19:30;100657.33;;;20.81;71.90
77450;BME280;66536;53.150;18.172;2023-07-29T07:21:56;100656.96;;;20.94;71.65
77450;BME280;66536;53.150;18.172;2023-07-29T07:24:23;100662.02;;;21.07;71.09
77450;BME280;66536;53.150;18.172;2023-07-29T07:26:49;100663.52;;;21.17;70.50
77450;BME280;66536;53.150;18.172;2023-07-29T07:29:16;100662.11;;;21.27;69.95
77450;BME280;66536;53.150;18.172;2023-07-29T07:31:50;100661.88;;;21.40;69.50
77450;BME280;66536;53.150;18.172;2023-07-29T07:34:20;100660.92;;;21.53;68.66
77450;BME280;66536;53.150;18.172;2023-07-29T07:36:47;100657.40;;;21.62;68.26
77450;BME280;66536;53.150;18.172;2023-07-29T07:39:14;100656.77;;;21.72;67.96
77450;BME280;66536;53.150;18.172;2023-07-29T07:41:41;100656.48;;;21.85;67.51
77450;BME280;66536;53.150;18.172;2023-07-29T07:44:08;100649.49;;;21.97;67.20
77450;BME280;66536;53.150;18.172;2023-07-29T07:46:35;100652.27;;;22.13;66.73
77450;BME280;66536;53.150;18.172;2023-07-29T07:49:02;100649.34;;;22.23;65.72
77450;BME280;66536;53.150;18.172;2023-07-29T07:51:28;100648.49;;;22.31;65.47
77450;BME280;66536;53.150;18.172;2023-07-29T07:53:56;100645.61;;;22.37;64.58
77450;BME280;66536;53.150;18.172;2023-07-29T07:56:22;100643.86;;;22.46;64.63
77450;BME280;66536;53.150;18.172;2023-07-29T07:58:49;100643.38;;;22.59;64.37
77450;BME280;66536;53.150;18.172;2023-07-29T08:01:16;100642.30;;;22.72;63.55
77450;BME280;66536;53.150;18.172;2023-07-29T08:03:42;100638.42;;;22.83;63.27
77450;BME280;66536;53.150;18.172;2023-07-29T08:06:09;100639.15;;;22.90;61.46
77450;BME280;66536;53.150;18.172;2023-07-29T08:08:36;100638.83;;;22.91;61.47
77450;BME280;66536;53.150;18.172;2023-07-29T08:11:02;100640.42;;;23.01;61.80
77450;BME280;66536;53.150;18.172;2023-07-29T08:13:29;100638.33;;;23.18;61.49
77450;BME280;66536;53.150;18.172;2023-07-29T08:15:55;100632.03;;;23.32;60.96
77450;BME280;66536;53.150;18.172;2023-07-29T08:18:22;100632.90;;;23.49;60.40
77450;BME280;66536;53.150;18.172;2023-07-29T08:20:58;100630.27;;;23.62;59.81
77450;BME280;66536;53.150;18.172;2023-07-29T08:23:26;100634.91;;;23.74;59.06
77450;BME280;66536;53.150;18.172;2023-07-29T08:25:54;100630.27;;;23.81;58.13
77450;BME280;66536;53.150;18.172;2023-07-29T08:28:23;100627.55;;;23.91;58.31
77450;BME280;66536;53.150;18.172;2023-07-29T08:30:50;100621.44;;;24.00;56.95
77450;BME280;66536;53.150;18.172;2023-07-29T08:33:17;100618.45;;;24.07;57.34
77450;BME280;66536;53.150;18.172;2023-07-29T08:35:44;100618.15;;;24.26;57.17
77450;BME280;66536;53.150;18.172;2023-07-29T08:38:10;100614.04;;;24.44;56.38
77450;BME280;66536;53.150;18.172;2023-07-29T08:40:45;100615.16;;;24.57;55.12
77450;BME280;66536;53.150;18.172;2023-07-29T08:43:16;100611.17;;;24.68;55.14
77450;BME280;66536;53.150;18.172;2023-07-29T08:45:45;100606.13;;;24.82;53.99
77450;BME280;66536;53.150;18.172;2023-07-29T08:48:13;100607.10;;;24.96;54.42
77450;BME280;66536;53.150;18.172;2023-07-29T08:50:43;100606.30;;;25.15;53.95
77450;BME280;66536;53.150;18.172;2023-07-29T08:53:10;100602.80;;;25.34;53.31
77450;BME280;66536;53.150;18.172;2023-07-29T08:55:38;100600.88;;;25.51;52.42
77450;BME280;66536;53.150;18.172;2023-07-29T08:58:05;100596.77;;;25.65;51.99
77450;BME280;66536;53.150;18.172;2023-07-29T09:00:32;100595.52;;;25.77;51.52
77450;BME280;66536;53.150;18.172;2023-07-29T09:02:59;100593.95;;;25.97;51.62
77450;BME280;66536;53.150;18.172;2023-07-29T09:05:34;100598.86;;;26.11;49.93
77450;BME280;66536;53.150;18.172;2023-07-29T09:08:02;100594.06;;;26.17;49.88
77450;BME280;66536;53.150;18.172;2023-07-29T09:10:30;100592.66;;;26.31;49.65
77450;BME280;66536;53.150;18.172;2023-07-29T09:12:56;100593.06;;;26.50;49.19
77450;BME280;66536;53.150;18.172;2023-07-29T09:15:28;100592.61;;;26.71;49.04
77450;BME280;66536;53.150;18.172;2023-07-29T09:17:56;100583.09;;;26.89;47.55
77450;BME280;66536;53.150;18.172;2023-07-29T09:20:26;100585.27;;;26.92;47.86
77450;BME280;66536;53.150;18.172;2023-07-29T09:22:54;100582.71;;;27.01;47.86
77450;BME280;66536;53.150;18.172;2023-07-29T09:25:25;100581.12;;;27.18;47.43
77450;BME280;66536;53.150;18.172;2023-07-29T09:27:52;100581.52;;;27.39;46.60
77450;BME280;66536;53.150;18.172;2023-07-29T09:30:19;100584.40;;;27.54;46.02
77450;BME280;66536;53.150;18.172;2023-07-29T09:32:45;100582.83;;;27.64;45.51
77450;BME280;66536;53.150;18.172;2023-07-29T09:35:12;100579.75;;;27.73;45.27
77450;BME280;66536;53.150;18.172;2023-07-29T09:37:40;100578.58;;;27.82;44.99
77450;BME280;66536;53.150;18.172;2023-07-29T09:40:14;100581.67;;;27.90;44.73
77450;BME280;66536;53.150;18.172;2023-07-29T09:42:48;100580.10;;;27.96;44.35
77450;BME280;66536;53.150;18.172;2023-07-29T09:45:26;100578.11;;;28.06;44.01
77450;BME280;66536;53.150;18.172;2023-07-29T09:47:54;100572.15;;;28.19;43.80
77450;BME280;66536;53.150;18.172;2023-07-29T09:50:24;100572.96;;;28.35;43.49
77450;BME280;66536;53.150;18.172;2023-07-29T09:53:04;100572.05;;;28.58;43.05
77450;BME280;66536;53.150;18.172;2023-07-29T09:55:37;100569.96;;;28.73;42.44
77450;BME280;66536;53.150;18.172;2023-07-29T09:58:04;100566.39;;;28.75;41.76
77450;BME280;66536;53.150;18.172;2023-07-29T10:00:35;100561.28;;;28.78;41.41
77450;BME280;66536;53.150;18.172;2023-07-29T10:03:02;100565.48;;;28.75;41.70
77450;BME280;66536;53.150;18.172;2023-07-29T10:05:29;100554.92;;;28.90;41.56
77450;BME280;66536;53.150;18.172;2023-07-29T10:07:56;100555.85;;;29.04;41.19
77450;BME280;66536;53.150;18.172;2023-07-29T10:10:23;100554.48;;;29.14;41.13
77450;BME280;66536;53.150;18.172;2023-07-29T10:12:50;100552.89;;;29.20;40.90
77450;BME280;66536;53.150;18.172;2023-07-29T10:15:17;100550.36;;;29.22;40.17
77450;BME280;66536;53.150;18.172;2023-07-29T10:17:45;100548.73;;;29.16;40.16
77450;BME280;66536;53.150;18.172;2023-07-29T10:20:14;100543.40;;;29.16;40.21
77450;BME280;66536;53.150;18.172;2023-07-29T10:22:42;100543.10;;;29.03;39.88
77450;BME280;66536;53.150;18.172;2023-07-29T10:25:16;100541.09;;;28.74;40.02
77450;BME280;66536;53.150;18.172;2023-07-29T10:27:47;100540.10;;;28.60;40.15
77450;BME280;66536;53.150;18.172;2023-07-29T10:30:14;100540.04;;;28.63;40.40
77450;BME280;66536;53.150;18.172;2023-07-29T10:32:42;100530.15;;;28.75;39.73
77450;BME280;66536;53.150;18.172;2023-07-29T10:35:13;100527.76;;;28.93;39.65
77450;BME280;66536;53.150;18.172;2023-07-29T10:37:40;100526.50;;;29.15;39.85
77450;BME280;66536;53.150;18.172;2023-07-29T10:40:10;100526.95;;;29.36;38.85
77450;BME280;66536;53.150;18.172;2023-07-29T10:42:38;100529.89;;;29.40;38.88
77450;BME280;66536;53.150;18.172;2023-07-29T10:45:18;100532.35;;;29.45;37.91
77450;BME280;66536;53.150;18.172;2023-07-29T10:47:47;100533.73;;;29.43;38.29
77450;BME280;66536;53.150;18.172;2023-07-29T10:50:20;100532.84;;;29.59;38.74
77450;BME280;66536;53.150;18.172;2023-07-29T10:52:52;100527.94;;;29.86;38.23
77450;BME280;66536;53.150;18.172;2023-07-29T10:55:26;100526.04;;;29.86;38.27
77450;BME280;66536;53.150;18.172;2023-07-29T10:58:07;100522.65;;;29.91;38.09
77450;BME280;66536;53.150;18.172;2023-07-29T11:00:35;100522.02;;;29.90;37.89
77450;BME280;66536;53.150;18.172;2023-07-29T11:03:06;100515.08;;;29.81;37.84
77450;BME280;66536;53.150;18.172;2023-07-29T11:05:46;100516.69;;;29.85;37.71
77450;BME280;66536;53.150;18.172;2023-07-29T11:08:24;100510.17;;;29.78;37.61
77450;BME280;66536;53.150;18.172;2023-07-29T11:11:06;100502.92;;;29.75;37.98
77450;BME280;66536;53.150;18.172;2023-07-29T11:13:35;100497.77;;;29.90;37.74
77450;BME280;66536;53.150;18.172;2023-07-29T11:16:05;100501.12;;;30.09;37.46
77450;BME280;66536;53.150;18.172;2023-07-29T11:18:34;100495.38;;;30.27;37.31
77450;BME280;66536;53.150;18.172;2023-07-29T11:21:02;100494.73;;;30.45;37.09
77450;BME280;66536;53.150;18.172;2023-07-29T11:23:32;100486.46;;;30.60;36.55
77450;BME280;66536;53.150;18.172;2023-07-29T11:26:00;100480.92;;;30.61;36.66
77450;BME280;66536;53.150;18.172;2023-07-29T11:28:28;100479.77;;;30.71;36.56
77450;BME280;66536;53.150;18.172;2023-07-29T11:30:56;100478.20;;;30.83;36.57
77450;BME280;66536;53.150;18.172;2023-07-29T11:33:25;100473.14;;;30.98;36.16
77450;BME280;66536;53.150;18.172;2023-07-29T11:35:55;100473.54;;;31.06;35.18
77450;BME280;66536;53.150;18.172;2023-07-29T11:38:22;100470.16;;;31.05;35.52
77450;BME280;66536;53.150;18.172;2023-07-29T11:40:59;100467.44;;;30.97;35.58
77450;BME280;66536;53.150;18.172;2023-07-29T11:43:26;100463.81;;;30.99;35.54
77450;BME280;66536;53.150;18.172;2023-07-29T11:45:53;100456.41;;;30.99;35.21
77450;BME280;66536;53.150;18.172;2023-07-29T11:48:31;100454.16;;;31.01;35.05
77450;BME280;66536;53.150;18.172;2023-07-29T11:50:59;100453.73;;;31.09;34.98
77450;BME280;66536;53.150;18.172;2023-07-29T11:53:29;100449.05;;;30.98;34.69
77450;BME280;66536;53.150;18.172;2023-07-29T11:55:58;100449.17;;;30.96;35.08
77450;BME280;66536;53.150;18.172;2023-07-29T11:58:25;100447.88;;;31.00;34.91
77450;BME280;66536;53.150;18.172;2023-07-29T12:00:52;100441.38;;;31.03;34.91
77450;BME280;66536;53.150;18.172;2023-07-29T12:03:19;100441.11;;;31.15;35.04
77450;BME280;66536;53.150;18.172;2023-07-29T12:05:47;100433.63;;;31.39;34.87
77450;BME280;66536;53.150;18.172;2023-07-29T12:08:13;100438.05;;;31.42;34.75
77450;BME280;66536;53.150;18.172;2023-07-29T12:10:41;100434.05;;;31.45;34.57
77450;BME280;66536;53.150;18.172;2023-07-29T12:13:08;100423.52;;;31.32;34.60
77450;BME280;66536;53.150;18.172;2023-07-29T12:15:37;100423.43;;;31.17;34.71
77450;BME280;66536;53.150;18.172;2023-07-29T12:18:05;100418.71;;;31.15;34.67
77450;BME280;66536;53.150;18.172;2023-07-29T12:20:31;100413.45;;;31.29;34.59
77450;BME280;66536;53.150;18.172;2023-07-29T12:22:59;100403.82;;;31.54;34.39
77450;BME280;66536;53.150;18.172;2023-07-29T12:25:32;100400.45;;;31.78;34.19
77450;BME280;66536;53.150;18.172;2023-07-29T12:28:03;100394.31;;;31.92;34.15
77450;BME280;66536;53.150;18.172;2023-07-29T12:30:30;100389.36;;;32.11;34.31
77450;BME280;66536;53.150;18.172;2023-07-29T12:32:57;100384.23;;;32.30;34.23
77450;BME280;66536;53.150;18.172;2023-07-29T12:35:24;100383.04;;;32.31;33.73
77450;BME280;66536;53.150;18.172;2023-07-29T12:38:00;100381.38;;;32.23;33.63
77450;BME280;66536;53.150;18.172;2023-07-29T12:40:27;100378.73;;;32.12;33.88
77450;BME280;66536;53.150;18.172;2023-07-29T12:42:53;100380.76;;;32.04;33.87
77450;BME280;66536;53.150;18.172;2023-07-29T12:45:20;100376.20;;;32.06;34.02
77450;BME280;66536;53.150;18.172;2023-07-29T12:47:53;100371.91;;;32.20;33.95
77450;BME280;66536;53.150;18.172;2023-07-29T12:50:20;100368.26;;;32.36;33.81